createdAt,value
2023-03-26T00:01:46.784Z,96653.72
2023-03-26T00:04:16.265Z,96655.47
2023-03-26T00:06:42.890Z,96657.53
2023-03-26T00:09:15.838Z,96664.50
2023-03-26T00:11:43.969Z,96665.63
2023-03-26T00:14:16.311Z,96667.97
2023-03-26T00:16:43.864Z,96670.88
2023-03-26T00:19:11.944Z,96672.56
2023-03-26T00:21:38.673Z,96672.84
2023-03-26T00:24:09.630Z,96674.91
2023-03-26T00:26:41.503Z,96674.38
2023-03-26T00:29:22.108Z,96678.88
2023-03-26T00:31:50.631Z,96683.31
2023-03-26T00:34:19.815Z,96685.25
2023-03-26T00:36:54.489Z,96684.75
2023-03-26T00:39:24.046Z,96684.75
2023-03-26T00:41:54.690Z,96691.53
2023-03-26T00:44:23.099Z,96698.59
2023-03-26T00:46:52.485Z,96698.16
2023-03-26T00:49:19.232Z,96687.47
2023-03-26T00:51:45.984Z,96690.94
2023-03-26T00:54:12.794Z,96698.94
2023-03-26T00:56:39.542Z,96703.69
2023-03-26T00:59:08.940Z,96707.44
2023-03-26T01:01:36.141Z,96706.81
2023-03-26T01:04:31.207Z,96714.16
2023-03-26T01:07:02.984Z,96725.59
2023-03-26T01:09:44.686Z,96716.16
2023-03-26T01:12:29.562Z,96716.47
2023-03-26T01:15:02.845Z,96726.44
2023-03-26T01:17:34.331Z,96724.06
2023-03-26T01:20:15.884Z,96724.00
2023-03-26T01:23:02.325Z,96718.78
2023-03-26T01:25:37.576Z,96720.84
2023-03-26T01:28:12.864Z,96709.41
2023-03-26T01:30:50.148Z,96733.41
2023-03-26T01:37:16.321Z,96720.88
2023-03-26T01:40:07.195Z,96725.13
2023-03-26T01:42:43.744Z,96727.88
2023-03-26T01:45:16.779Z,96734.97
2023-03-26T01:47:44.256Z,96729.09
2023-03-26T01:50:11.545Z,96740.38
2023-03-26T01:52:38.461Z,96731.94
2023-03-26T01:55:07.123Z,96745.34
2023-03-26T01:58:19.141Z,96754.03
2023-03-26T02:01:17.734Z,96757.50
2023-03-26T02:03:57.084Z,96754.94
2023-03-26T02:09:52.687Z,96763.75
2023-03-26T02:12:22.374Z,96767.25
2023-03-26T02:14:49.587Z,96754.09
2023-03-26T02:17:16.918Z,96743.03
2023-03-26T02:19:45.682Z,96743.25
2023-03-26T02:22:18.317Z,96740.84
2023-03-26T02:24:45.805Z,96731.00
2023-03-26T02:27:12.590Z,96735.66
2023-03-26T02:29:40.491Z,96728.22
2023-03-26T02:32:14.034Z,96740.28
2023-03-26T02:34:42.038Z,96744.31
2023-03-26T02:37:13.350Z,96743.31
2023-03-26T02:39:40.055Z,96740.53
2023-03-26T02:42:09.766Z,96746.22
2023-03-26T02:44:38.923Z,96752.81
2023-03-26T02:47:05.918Z,96756.50
2023-03-26T02:49:36.959Z,96755.09
2023-03-26T02:52:09.117Z,96762.72
2023-03-26T02:54:37.399Z,96770.81
2023-03-26T02:57:05.595Z,96769.09
2023-03-26T02:59:35.206Z,96773.66
2023-03-26T03:02:02.328Z,96775.50
2023-03-26T03:04:31.833Z,96780.41
2023-03-26T03:07:00.980Z,96786.66
2023-03-26T03:09:30.298Z,96787.44
2023-03-26T03:12:02.105Z,96788.28
2023-03-26T03:14:28.816Z,96792.03
2023-03-26T03:16:58.251Z,96800.78
2023-03-26T03:19:25.119Z,96798.09
2023-03-26T03:21:53.261Z,96792.69
2023-03-26T03:24:19.970Z,96797.25
2023-03-26T03:26:48.149Z,96790.81
2023-03-26T03:29:19.182Z,96794.31
2023-03-26T03:31:45.972Z,96791.19
2023-03-26T03:34:12.603Z,96794.75
2023-03-26T03:36:43.568Z,96791.84
2023-03-26T03:39:12.628Z,96792.75
2023-03-26T03:41:41.306Z,96792.69
2023-03-26T03:44:08.027Z,96795.03
2023-03-26T03:46:34.782Z,96790.06
2023-03-26T03:49:02.588Z,96792.56
2023-03-26T03:51:31.836Z,96796.44
2023-03-26T03:53:58.698Z,96785.88
2023-03-26T03:56:26.216Z,96798.38
2023-03-26T03:58:53.095Z,96788.00
2023-03-26T04:01:22.965Z,96798.66
2023-03-26T04:03:53.073Z,96795.38
2023-03-26T04:06:22.330Z,96792.91
2023-03-26T04:08:49.032Z,96799.22
2023-03-26T04:11:18.496Z,96797.72
2023-03-26T04:13:45.339Z,96796.41
2023-03-26T04:16:12.151Z,96798.56
2023-03-26T04:18:40.879Z,96798.69
2023-03-26T04:21:07.828Z,96800.66
2023-03-26T04:23:39.268Z,96805.41
2023-03-26T04:26:10.593Z,96803.63
2023-03-26T04:28:53.353Z,96797.69
2023-03-26T04:31:29.484Z,96797.19
2023-03-26T04:34:31.135Z,96798.28
2023-03-26T04:36:58.818Z,96801.13
2023-03-26T04:39:29.470Z,96801.13
2023-03-26T04:41:57.930Z,96797.44
2023-03-26T04:44:24.674Z,96800.28
2023-03-26T04:46:53.096Z,96797.56
2023-03-26T04:49:33.351Z,96801.97
2023-03-26T04:52:00.244Z,96795.25
2023-03-26T04:54:26.983Z,96800.53
2023-03-26T04:57:06.460Z,96801.22
2023-03-26T04:59:37.632Z,96801.81
2023-03-26T05:02:06.426Z,96803.38
2023-03-26T05:04:39.239Z,96808.41
2023-03-26T05:07:09.838Z,96810.09
2023-03-26T05:09:39.563Z,96810.91
2023-03-26T05:12:06.511Z,96811.63
2023-03-26T05:14:34.503Z,96817.00
2023-03-26T05:17:01.839Z,96796.09
2023-03-26T05:19:28.514Z,96798.63
2023-03-26T05:21:55.223Z,96801.25
2023-03-26T05:24:24.923Z,96810.06
2023-03-26T05:26:52.005Z,96803.81
2023-03-26T05:29:24.288Z,96807.22
2023-03-26T05:31:51.146Z,96802.91
2023-03-26T05:34:32.144Z,96807.34
2023-03-26T05:36:58.814Z,96805.00
2023-03-26T05:39:28.321Z,96806.84
2023-03-26T05:41:54.958Z,96797.19
2023-03-26T05:44:21.721Z,96806.63
2023-03-26T05:46:53.385Z,96810.63
2023-03-26T05:49:22.176Z,96807.66
2023-03-26T05:51:51.980Z,96810.88
2023-03-26T05:54:22.341Z,96807.06
2023-03-26T05:56:49.054Z,96811.06
2023-03-26T05:59:18.696Z,96811.63
2023-03-26T06:01:48.345Z,96815.56
2023-03-26T06:04:17.870Z,96815.25
2023-03-26T06:06:47.461Z,96820.09
2023-03-26T06:09:15.863Z,96814.44
2023-03-26T06:11:42.567Z,96813.00
2023-03-26T06:14:11.094Z,96812.72
2023-03-26T06:16:37.938Z,96811.50
2023-03-26T06:19:09.013Z,96803.16
2023-03-26T06:21:35.882Z,96807.22
2023-03-26T06:24:02.555Z,96806.91
2023-03-26T06:26:32.675Z,96803.97
2023-03-26T06:29:01.766Z,96816.69
2023-03-26T06:31:28.546Z,96819.16
2023-03-26T06:33:55.378Z,96820.66
2023-03-26T06:36:25.348Z,96823.69
2023-03-26T06:38:52.156Z,96824.00
2023-03-26T06:41:18.804Z,96835.22
2023-03-26T06:43:45.728Z,96834.91
2023-03-26T06:46:18.869Z,96829.53
2023-03-26T06:48:48.659Z,96830.84
2023-03-26T06:51:15.903Z,96833.16
2023-03-26T06:53:44.766Z,96847.47
2023-03-26T06:56:14.196Z,96841.50
2023-03-26T06:58:44.128Z,96843.19
2023-03-26T07:01:10.966Z,96841.09
2023-03-26T07:03:37.542Z,96839.47
2023-03-26T07:06:06.196Z,96841.09
2023-03-26T07:08:32.849Z,96838.34
2023-03-26T07:10:59.472Z,96828.34
2023-03-26T07:13:31.113Z,96831.25
2023-03-26T07:15:57.806Z,96830.19
2023-03-26T07:18:26.517Z,96840.72
2023-03-26T07:21:04.558Z,96834.53
2023-03-26T07:23:37.489Z,96836.06
2023-03-26T07:26:26.011Z,96839.03
2023-03-26T07:29:09.433Z,96834.00
2023-03-26T07:31:50.572Z,96826.28
2023-03-26T07:34:53.974Z,96828.06
2023-03-26T07:37:52.493Z,96830.34
2023-03-26T07:40:44.120Z,96827.53
2023-03-26T07:43:22.779Z,96825.28
2023-03-26T07:45:49.688Z,96814.91
2023-03-26T07:48:25.455Z,96804.41
2023-03-26T07:50:52.276Z,96803.72
2023-03-26T07:53:19.598Z,96810.47
2023-03-26T07:56:12.426Z,96802.84
2023-03-26T07:58:38.921Z,96798.66
2023-03-26T08:01:12.331Z,96803.22
2023-03-26T08:03:58.734Z,96801.34
2023-03-26T08:15:41.089Z,96790.38
2023-03-26T08:18:20.661Z,96783.41
2023-03-26T08:21:07.318Z,96792.56
2023-03-26T08:23:50.474Z,96793.25
2023-03-26T08:26:30.549Z,96787.19
2023-03-26T08:29:26.591Z,96799.19
2023-03-26T08:32:01.189Z,96795.50
2023-03-26T08:37:19.077Z,96788.25
2023-03-26T08:39:45.922Z,96779.47
2023-03-26T08:42:53.223Z,96784.34
2023-03-26T08:45:32.482Z,96784.53
2023-03-26T08:48:40.335Z,96791.25
2023-03-26T08:51:07.890Z,96791.25
2023-03-26T08:53:40.526Z,96793.63
2023-03-26T08:59:21.184Z,96790.22
2023-03-26T09:02:10.953Z,96789.66
2023-03-26T09:04:58.278Z,96794.56
2023-03-26T09:07:46.650Z,96800.88
2023-03-26T09:10:24.092Z,96804.94
2023-03-26T09:13:17.293Z,96799.44
2023-03-26T09:15:52.649Z,96804.56
2023-03-26T09:18:19.222Z,96799.66
2023-03-26T09:20:48.727Z,96808.25
2023-03-26T09:23:24.341Z,96809.09
2023-03-26T09:26:23.253Z,96797.56
2023-03-26T09:29:10.090Z,96790.19
2023-03-26T09:31:58.201Z,96793.06
2023-03-26T09:34:28.601Z,96788.34
2023-03-26T09:36:57.350Z,96794.75
2023-03-26T09:39:29.698Z,96800.59
2023-03-26T09:42:26.420Z,96794.56
2023-03-26T09:44:53.567Z,96783.63
2023-03-26T09:47:39.553Z,96795.88
2023-03-26T09:50:30.696Z,96793.25
2023-03-26T09:53:03.311Z,96796.44
2023-03-26T09:55:33.036Z,96799.75
2023-03-26T09:58:06.442Z,96798.97
2023-03-26T10:00:46.210Z,96790.47
2023-03-26T10:03:26.960Z,96802.84
2023-03-26T10:06:17.370Z,96793.31
2023-03-26T10:09:02.822Z,96792.38
2023-03-26T10:11:35.527Z,96801.00
2023-03-26T10:14:20.870Z,96797.22
2023-03-26T10:17:04.298Z,96803.53
2023-03-26T10:19:39.988Z,96805.69
2023-03-26T10:22:06.666Z,96809.19
2023-03-26T10:24:54.205Z,96809.00
2023-03-26T10:27:25.861Z,96806.66
2023-03-26T10:30:18.795Z,96799.66
2023-03-26T10:32:56.863Z,96800.00
2023-03-26T10:35:37.362Z,96799.22
2023-03-26T10:38:30.397Z,96781.13
2023-03-26T10:41:15.564Z,96797.13
2023-03-26T10:44:07.411Z,96788.97
2023-03-26T10:46:44.042Z,96789.44
2023-03-26T10:49:19.562Z,96787.56
2023-03-26T10:51:58.382Z,96767.59
2023-03-26T10:54:42.961Z,96780.25
2023-03-26T10:57:19.757Z,96780.00
2023-03-26T10:59:46.287Z,96768.03
2023-03-26T11:02:12.842Z,96774.59
2023-03-26T11:04:48.632Z,96766.00
2023-03-26T11:07:21.342Z,96763.81
2023-03-26T11:10:17.480Z,96760.84
2023-03-26T11:12:53.265Z,96750.78
2023-03-26T11:15:19.743Z,96748.66
2023-03-26T11:17:52.358Z,96752.91
2023-03-26T11:20:18.892Z,96744.75
2023-03-26T11:22:45.363Z,96737.84
2023-03-26T11:25:17.838Z,96743.56
2023-03-26T11:27:55.925Z,96740.28
2023-03-26T11:30:41.368Z,96740.28
2023-03-26T11:33:12.482Z,96735.69
2023-03-26T11:35:42.434Z,96742.28
2023-03-26T11:38:27.589Z,96743.34
2023-03-26T11:40:55.806Z,96748.84
2023-03-26T11:43:26.186Z,96740.56
2023-03-26T11:45:53.916Z,96747.44
2023-03-26T11:48:23.427Z,96741.34
2023-03-26T11:50:56.278Z,96739.66
2023-03-26T11:53:26.003Z,96742.25
2023-03-26T11:56:01.282Z,96746.13
2023-03-26T11:58:34.077Z,96748.53
2023-03-26T12:01:03.227Z,96748.53
2023-03-26T12:03:30.384Z,96764.69
2023-03-26T12:05:59.720Z,96796.66
2023-03-26T12:08:38.501Z,96794.06
2023-03-26T12:11:10.985Z,96785.59
2023-03-26T12:13:44.926Z,96766.72
2023-03-26T12:16:17.480Z,96770.25
2023-03-26T12:18:45.690Z,96763.69
2023-03-26T12:21:18.405Z,96747.44
2023-03-26T12:24:04.626Z,96750.56
2023-03-26T12:26:45.715Z,96743.94
2023-03-26T12:29:17.492Z,96743.38
2023-03-26T12:32:13.190Z,96742.13
2023-03-26T12:34:40.387Z,96742.25
2023-03-26T12:37:28.083Z,96741.34
2023-03-26T12:40:26.047Z,96736.00
2023-03-26T12:44:47.302Z,96732.47
2023-03-26T12:46:58.912Z,96727.69
2023-03-26T12:48:38.204Z,96716.94
2023-03-26T12:51:22.399Z,96713.31
2023-03-26T12:54:17.423Z,96710.38
2023-03-26T12:57:13.359Z,96708.78
2023-03-26T12:59:58.184Z,96706.66
2023-03-26T13:02:44.144Z,96702.22
2023-03-26T13:05:53.286Z,96695.66
2023-03-26T13:08:39.623Z,96692.25
2023-03-26T13:11:41.450Z,96691.16
2023-03-26T13:14:39.679Z,96677.19
2023-03-26T13:17:31.646Z,96671.06
2023-03-26T13:20:26.214Z,96664.06
2023-03-26T13:22:52.778Z,96666.69
2023-03-26T13:25:37.386Z,96671.94
2023-03-26T13:28:03.871Z,96658.31
2023-03-26T13:30:44.861Z,96659.38
2023-03-26T13:33:32.016Z,96654.63
2023-03-26T13:36:23.806Z,96652.63
2023-03-26T13:38:58.562Z,96642.00
2023-03-26T13:41:36.806Z,96636.19
2023-03-26T13:44:05.412Z,96635.34
2023-03-26T13:46:46.435Z,96632.44
2023-03-26T13:49:19.362Z,96630.19
2023-03-26T13:52:04.862Z,96619.59
2023-03-26T13:54:34.331Z,96622.41
2023-03-26T13:57:39.638Z,96622.00
2023-03-26T14:00:22.073Z,96627.59
2023-03-26T14:03:19.511Z,96628.03
2023-03-26T14:06:03.627Z,96622.06
2023-03-26T14:08:47.479Z,96617.09
2023-03-26T14:11:28.670Z,96630.38
2023-03-26T14:14:31.945Z,96629.00
2023-03-26T14:17:38.494Z,96629.91
2023-03-26T14:20:29.318Z,96622.13
2023-03-26T14:23:25.075Z,96613.53
2023-03-26T14:26:01.400Z,96625.50
2023-03-26T14:29:08.178Z,96616.88
2023-03-26T14:32:05.075Z,96613.44
2023-03-26T14:34:35.831Z,96607.81
2023-03-26T14:37:27.365Z,96602.47
2023-03-26T14:39:54.887Z,96604.88
2023-03-26T14:43:05.681Z,96604.63
2023-03-26T14:45:57.198Z,96601.41
2023-03-26T14:48:34.152Z,96602.25
2023-03-26T14:51:19.588Z,96591.31
2023-03-26T14:54:08.024Z,96586.53
2023-03-26T14:56:40.111Z,96587.34
2023-03-26T14:59:51.222Z,96585.56
2023-03-26T15:02:24.143Z,96578.56
2023-03-26T15:04:53.786Z,96578.41
2023-03-26T15:07:58.576Z,96578.66
2023-03-26T15:10:43.602Z,96574.53
2023-03-26T15:13:18.235Z,96580.78
2023-03-26T15:15:54.298Z,96587.06
2023-03-26T15:18:21.732Z,96589.34
2023-03-26T15:20:54.511Z,96586.66
2023-03-26T15:24:08.891Z,96585.25
2023-03-26T15:27:08.321Z,96588.97
2023-03-26T15:29:53.470Z,96587.75
2023-03-26T15:32:30.136Z,96589.53
2023-03-26T15:35:26.280Z,96583.41
2023-03-26T15:38:20.975Z,96585.66
2023-03-26T15:41:16.451Z,96586.84
2023-03-26T15:44:23.011Z,96585.38
2023-03-26T15:50:56.872Z,96582.94
2023-03-26T15:53:33.656Z,96587.50
2023-03-26T15:56:06.993Z,96589.31
2023-03-26T15:58:43.104Z,96577.56
2023-03-26T16:01:19.184Z,96579.25
2023-03-26T16:04:05.690Z,96570.56
2023-03-26T16:06:46.557Z,96583.69
2023-03-26T16:09:14.964Z,96581.88
2023-03-26T16:11:56.048Z,96577.72
2023-03-26T16:14:24.137Z,96585.13
2023-03-26T16:16:54.277Z,96584.38
2023-03-26T16:19:34.610Z,96581.78
2023-03-26T16:22:02.870Z,96586.25
2023-03-26T16:24:31.305Z,96586.06
2023-03-26T16:27:08.348Z,96592.16
2023-03-26T16:30:13.850Z,96590.38
2023-03-26T16:32:44.179Z,96590.34
2023-03-26T16:35:10.717Z,96585.09
2023-03-26T16:38:08.883Z,96587.28
2023-03-26T16:43:36.068Z,96589.75
2023-03-26T16:46:07.301Z,96581.75
2023-03-26T16:48:44.375Z,96583.25
2023-03-26T16:51:40.649Z,96584.56
2023-03-26T16:54:19.428Z,96586.03
2023-03-26T16:57:19.470Z,96578.50
2023-03-26T17:00:16.791Z,96576.00
2023-03-26T17:02:54.093Z,96579.81
2023-03-26T17:05:21.224Z,96584.22
2023-03-26T17:08:09.484Z,96584.06
2023-03-26T17:10:40.088Z,96586.72
2023-03-26T17:13:12.602Z,96587.34
2023-03-26T17:15:49.175Z,96587.28
2023-03-26T17:18:38.520Z,96591.34
2023-03-26T17:21:17.266Z,96592.53
2023-03-26T17:24:08.306Z,96589.38
2023-03-26T17:27:15.983Z,96605.88
2023-03-26T17:30:03.949Z,96600.41
2023-03-26T17:32:58.994Z,96601.13
2023-03-26T17:35:55.083Z,96606.50
2023-03-26T17:38:27.103Z,96608.19
2023-03-26T17:40:55.299Z,96607.56
2023-03-26T17:43:40.411Z,96617.50
2023-03-26T17:46:31.861Z,96633.72
2023-03-26T17:49:10.945Z,96637.72
2023-03-26T17:51:50.636Z,96634.19
2023-03-26T17:54:39.697Z,96639.59
2023-03-26T17:57:17.321Z,96650.56
2023-03-26T17:59:51.316Z,96652.41
2023-03-26T18:02:23.939Z,96652.41
2023-03-26T18:04:59.449Z,96654.75
2023-03-26T18:07:53.243Z,96665.91
2023-03-26T18:10:39.086Z,96671.69
2023-03-26T18:13:23.248Z,96668.03
2023-03-26T18:16:02.197Z,96667.72
2023-03-26T18:18:39.976Z,96682.34
2023-03-26T18:21:09.497Z,96680.97
2023-03-26T18:23:45.183Z,96682.94
2023-03-26T18:26:48.584Z,96682.94
2023-03-26T18:29:31.730Z,96674.00
2023-03-26T18:32:00.792Z,96674.78
2023-03-26T18:34:31.805Z,96676.66
2023-03-26T18:37:14.984Z,96670.84
2023-03-26T18:39:55.802Z,96676.44
2023-03-26T18:45:15.751Z,96669.66
2023-03-26T18:47:50.355Z,96666.19
2023-03-26T18:50:41.262Z,96672.28
2023-03-26T18:53:30.562Z,96667.97
2023-03-26T18:55:58.248Z,96663.19
2023-03-26T18:58:38.505Z,96668.88
2023-03-26T19:01:17.177Z,96663.28
2023-03-26T19:03:47.346Z,96658.94
2023-03-26T19:06:15.235Z,96659.59
2023-03-26T19:08:44.731Z,96661.28
2023-03-26T19:11:12.505Z,96653.72
2023-03-26T19:13:54.355Z,96664.72
2023-03-26T19:16:33.118Z,96656.69
2023-03-26T19:19:01.366Z,96646.66
2023-03-26T19:21:33.060Z,96642.00
2023-03-26T19:24:01.081Z,96639.97
2023-03-26T19:26:31.488Z,96642.28
2023-03-26T19:29:00.934Z,96635.94
2023-03-26T19:31:45.228Z,96645.53
2023-03-26T19:34:11.854Z,96645.41
2023-03-26T19:36:58.075Z,96636.16
2023-03-26T19:39:54.400Z,96645.84
2023-03-26T19:42:43.604Z,96642.28
2023-03-26T19:45:23.241Z,96640.38
2023-03-26T19:48:03.580Z,96640.06
2023-03-26T19:51:05.537Z,96642.66
2023-03-26T19:53:37.365Z,96645.56
2023-03-26T19:56:16.306Z,96641.22
2023-03-26T19:58:43.205Z,96637.25
2023-03-26T20:01:24.901Z,96636.94
2023-03-26T20:03:55.604Z,96632.66
2023-03-26T20:06:34.032Z,96625.16
2023-03-26T20:09:11.020Z,96627.91
2023-03-26T20:11:40.381Z,96622.19
2023-03-26T20:14:16.275Z,96620.25
2023-03-26T20:16:46.202Z,96623.59
2023-03-26T20:19:23.053Z,96624.44
2023-03-26T20:21:56.068Z,96624.69
2023-03-26T20:24:28.272Z,96622.59
2023-03-26T20:26:56.546Z,96622.19
2023-03-26T20:29:30.482Z,96624.03
2023-03-26T20:31:59.158Z,96614.78
2023-03-26T20:34:26.206Z,96610.81
2023-03-26T20:37:01.375Z,96602.16
2023-03-26T20:39:31.118Z,96597.03
2023-03-26T20:42:02.548Z,96587.94
2023-03-26T20:44:36.703Z,96591.00
2023-03-26T20:47:10.953Z,96593.31
2023-03-26T20:49:40.537Z,96589.44
2023-03-26T20:52:10.003Z,96586.22
2023-03-26T20:54:38.961Z,96585.91
2023-03-26T20:57:08.414Z,96589.81
2023-03-26T20:59:37.810Z,96581.25
2023-03-26T21:02:09.022Z,96575.22
2023-03-26T21:04:35.983Z,96580.78
2023-03-26T21:07:11.186Z,96583.50
2023-03-26T21:09:49.150Z,96583.94
2023-03-26T21:12:30.136Z,96583.25
2023-03-26T21:15:10.242Z,96573.19
2023-03-26T21:17:46.971Z,96567.28
2023-03-26T21:20:16.134Z,96567.38
2023-03-26T21:23:05.998Z,96579.81
2023-03-26T21:25:53.025Z,96567.38
2023-03-26T21:28:39.709Z,96563.00
2023-03-26T21:31:15.745Z,96570.97
2023-03-26T21:33:45.517Z,96567.13
2023-03-26T21:36:13.398Z,96568.13
2023-03-26T21:38:43.677Z,96570.16
2023-03-26T21:41:38.866Z,96569.72
2023-03-26T21:44:05.730Z,96563.88
2023-03-26T21:46:34.832Z,96570.44
2023-03-26T21:49:02.188Z,96566.06
2023-03-26T21:51:30.287Z,96576.06
2023-03-26T21:53:57.240Z,96571.00
2023-03-26T21:56:26.570Z,96570.22
2023-03-26T21:59:16.481Z,96565.03
2023-03-26T22:01:45.552Z,96558.44
2023-03-26T22:04:19.872Z,96554.31
2023-03-26T22:06:47.269Z,96561.34
2023-03-26T22:09:16.681Z,96559.53
2023-03-26T22:11:45.234Z,96555.41
2023-03-26T22:14:13.446Z,96555.06
2023-03-26T22:16:42.858Z,96562.22
2023-03-26T22:19:17.663Z,96565.03
2023-03-26T22:21:47.716Z,96561.84
2023-03-26T22:24:14.432Z,96549.66
2023-03-26T22:26:45.881Z,96558.69
2023-03-26T22:29:16.574Z,96548.91
2023-03-26T22:31:44.008Z,96549.13
2023-03-26T22:34:11.782Z,96540.63
2023-03-26T22:36:40.239Z,96540.63
2023-03-26T22:39:07.408Z,96537.09
2023-03-26T22:41:38.224Z,96526.56
2023-03-26T22:44:19.799Z,96524.03
2023-03-26T22:46:49.660Z,96528.50
2023-03-26T22:49:17.068Z,96517.56
2023-03-26T22:51:47.853Z,96512.22
2023-03-26T22:54:19.539Z,96501.03
2023-03-26T22:56:46.368Z,96494.31
2023-03-26T22:59:16.071Z,96487.56
2023-03-26T23:01:48.201Z,96481.66
2023-03-26T23:04:31.337Z,96484.22
2023-03-26T23:06:59.134Z,96486.06
2023-03-26T23:09:28.774Z,96475.81
2023-03-26T23:12:01.197Z,96468.28
2023-03-26T23:14:32.554Z,96465.91
2023-03-26T23:16:59.665Z,96461.84
2023-03-26T23:19:30.209Z,96456.78
2023-03-26T23:21:59.403Z,96466.19
2023-03-26T23:24:26.952Z,96468.41
2023-03-26T23:26:57.158Z,96458.78
2023-03-26T23:29:34.248Z,96455.19
2023-03-26T23:32:01.421Z,96453.13
2023-03-26T23:34:28.430Z,96451.38
2023-03-26T23:36:58.228Z,96453.16
2023-03-26T23:39:28.743Z,96453.97
2023-03-26T23:42:12.422Z,96455.84
2023-03-26T23:44:49.217Z,96460.94
2023-03-26T23:47:20.320Z,96453.16
2023-03-26T23:49:47.336Z,96436.84
2023-03-26T23:52:22.227Z,96436.03
2023-03-26T23:54:53.453Z,96430.75
2023-03-26T23:57:20.284Z,96445.78
2023-03-26T23:59:46.932Z,96443.03
